This is the latest recevied weather packets stored in our database for station/object YO3LAW-13. If no packets are shown the sender has not sent any weather packets the latest 10 day(s).
| Time | Temp. | Humidity | Pressure | Rain* | Wind** | Luminosity | Snow |
|---|---|---|---|---|---|---|---|
| 1777654257 | 11.11° C | 45% | 1013.9 hPa | 0 mm | - | - | - |
| 1777653657 | 11.11° C | 43% | 1013.9 hPa | 0 mm | - | - | - |
| 1777653057 | 11.11° C | 42% | 1013.8 hPa | 0 mm | - | - | - |
| 1777652457 | 11.67° C | 44% | 1013.8 hPa | 0 mm | - | - | - |
| 1777651857 | 11.67° C | 42% | 1013.5 hPa | 0 mm | - | - | - |
| 1777651257 | 11.67° C | 41% | 1013.7 hPa | 0 mm | - | - | - |
| 1777650657 | 12.22° C | 42% | 1013.4 hPa | 0 mm | - | - | - |
| 1777650057 | 12.78° C | 40% | 1013.5 hPa | 0 mm | - | - | - |
| 1777649457 | 12.78° C | 40% | 1013.6 hPa | 0 mm | - | - | - |
| 1777648857 | 13.33° C | 37% | 1013.6 hPa | 0 mm | - | - | - |
| 1777648257 | 13.33° C | 39% | 1013.7 hPa | 0 mm | - | - | - |
| 1777647657 | 13.33° C | 39% | 1013.9 hPa | 0 mm | - | - | - |
| 1777647057 | 12.78° C | 40% | 1013.9 hPa | 0 mm | - | - | - |
| 1777646457 | 13.33° C | 38% | 1013.9 hPa | 0 mm | - | - | - |
| 1777645857 | 13.33° C | 40% | 1013.8 hPa | 0 mm | - | - | - |
| 1777645257 | 13.33° C | 36% | 1014 hPa | 0 mm | - | - | - |
| 1777644657 | 12.78° C | 40% | 1014.1 hPa | 0 mm | - | - | - |
| 1777644057 | 13.89° C | 36% | 1014 hPa | 0 mm | - | - | - |
| 1777643457 | 13.89° C | 35% | 1014.2 hPa | 0 mm | - | - | - |
| 1777642857 | 13.33° C | 35% | 1014.2 hPa | 0 mm | - | - | - |
| 1777642257 | 13.33° C | 40% | 1014.1 hPa | 0 mm | - | - | - |
| 1777641657 | 13.89° C | 36% | 1014.4 hPa | 0 mm | - | - | - |
| 1777641057 | 13.33° C | 38% | 1014.2 hPa | 0 mm | - | - | - |
| 1777640457 | 13.89° C | 37% | 1014.3 hPa | 0 mm | - | - | - |
| 1777639857 | 13.89° C | 37% | 1014.3 hPa | 0 mm | - | - | - |
* Rain latest hour (hover to see other rain measurements)
** Current wind speed in m/s (hover to see current wind gust speed)